sensor_id;sensor_type;location;lat;lon;timestamp;P1;durP1;ratioP1;P2;durP2;ratioP2
60054;SDS011;45930;53.514;55.904;2022-08-11T00:01:04;48.65;;;37.90;;
60054;SDS011;45930;53.514;55.904;2022-08-11T00:02:08;49.58;;;37.63;;
60054;SDS011;45930;53.514;55.904;2022-08-11T00:03:12;48.65;;;38.80;;
60054;SDS011;45930;53.514;55.904;2022-08-11T00:04:15;49.30;;;38.25;;
60054;SDS011;45930;53.514;55.904;2022-08-11T00:05:18;46.38;;;37.33;;
60054;SDS011;45930;53.514;55.904;2022-08-11T00:06:36;55.90;;;38.45;;
60054;SDS011;45930;53.514;55.904;2022-08-11T00:07:42;50.08;;;39.70;;
60054;SDS011;45930;53.514;55.904;2022-08-11T00:08:44;49.13;;;40.13;;
60054;SDS011;45930;53.514;55.904;2022-08-11T00:09:50;50.47;;;39.63;;
60054;SDS011;45930;53.514;55.904;2022-08-11T00:10:54;48.40;;;37.33;;
60054;SDS011;45930;53.514;55.904;2022-08-11T00:11:57;47.05;;;37.20;;
60054;SDS011;45930;53.514;55.904;2022-08-11T00:13:01;48.38;;;38.85;;
60054;SDS011;45930;53.514;55.904;2022-08-11T00:14:12;49.38;;;38.22;;
60054;SDS011;45930;53.514;55.904;2022-08-11T00:15:28;50.53;;;41.10;;
60054;SDS011;45930;53.514;55.904;2022-08-11T00:16:56;46.28;;;40.33;;
60054;SDS011;45930;53.514;55.904;2022-08-11T00:17:58;48.53;;;40.72;;
60054;SDS011;45930;53.514;55.904;2022-08-11T00:19:00;54.28;;;39.95;;
60054;SDS011;45930;53.514;55.904;2022-08-11T00:20:04;52.92;;;39.75;;
60054;SDS011;45930;53.514;55.904;2022-08-11T00:21:09;53.00;;;40.63;;
60054;SDS011;45930;53.514;55.904;2022-08-11T00:22:11;50.55;;;41.08;;
60054;SDS011;45930;53.514;55.904;2022-08-11T00:24:21;49.65;;;40.85;;
60054;SDS011;45930;53.514;55.904;2022-08-11T00:25:23;50.80;;;41.50;;
60054;SDS011;45930;53.514;55.904;2022-08-11T00:26:25;48.17;;;40.20;;
60054;SDS011;45930;53.514;55.904;2022-08-11T00:27:30;48.10;;;39.30;;
60054;SDS011;45930;53.514;55.904;2022-08-11T00:28:35;46.67;;;37.30;;
60054;SDS011;45930;53.514;55.904;2022-08-11T00:29:36;53.35;;;39.53;;
60054;SDS011;45930;53.514;55.904;2022-08-11T00:30:38;55.72;;;40.85;;
60054;SDS011;45930;53.514;55.904;2022-08-11T00:31:53;47.90;;;39.40;;
60054;SDS011;45930;53.514;55.904;2022-08-11T00:32:55;50.20;;;39.63;;
60054;SDS011;45930;53.514;55.904;2022-08-11T00:33:58;53.20;;;38.38;;
60054;SDS011;45930;53.514;55.904;2022-08-11T00:35:00;51.90;;;42.67;;
60054;SDS011;45930;53.514;55.904;2022-08-11T00:36:03;60.45;;;40.05;;
60054;SDS011;45930;53.514;55.904;2022-08-11T00:37:09;55.58;;;38.47;;
60054;SDS011;45930;53.514;55.904;2022-08-11T00:38:11;54.05;;;38.25;;
60054;SDS011;45930;53.514;55.904;2022-08-11T00:39:14;49.67;;;38.08;;
60054;SDS011;45930;53.514;55.904;2022-08-11T00:40:25;56.30;;;39.83;;
60054;SDS011;45930;53.514;55.904;2022-08-11T00:43:12;57.67;;;40.78;;
60054;SDS011;45930;53.514;55.904;2022-08-11T00:45:28;52.00;;;39.35;;
60054;SDS011;45930;53.514;55.904;2022-08-11T00:50:42;53.72;;;41.28;;
60054;SDS011;45930;53.514;55.904;2022-08-11T00:51:54;52.17;;;41.15;;
60054;SDS011;45930;53.514;55.904;2022-08-11T00:55:41;52.95;;;41.80;;
60054;SDS011;45930;53.514;55.904;2022-08-11T01:05:45;49.10;;;39.10;;
60054;SDS011;45930;53.514;55.904;2022-08-11T01:09:58;51.25;;;39.83;;
60054;SDS011;45930;53.514;55.904;2022-08-11T01:11:32;46.85;;;38.55;;
60054;SDS011;45930;53.514;55.904;2022-08-11T01:13:28;46.97;;;37.90;;
60054;SDS011;45930;53.514;55.904;2022-08-11T01:35:33;49.30;;;40.45;;
60054;SDS011;45930;53.514;55.904;2022-08-11T01:46:53;53.20;;;42.58;;
60054;SDS011;45930;53.514;55.904;2022-08-11T01:48:18;51.75;;;40.50;;
60054;SDS011;45930;53.514;55.904;2022-08-11T01:53:33;48.83;;;39.38;;
60054;SDS011;45930;53.514;55.904;2022-08-11T01:54:52;52.83;;;41.05;;
60054;SDS011;45930;53.514;55.904;2022-08-11T01:56:15;55.17;;;42.88;;
60054;SDS011;45930;53.514;55.904;2022-08-11T01:57:48;54.75;;;42.75;;
60054;SDS011;45930;53.514;55.904;2022-08-11T01:58:59;55.05;;;44.28;;
60054;SDS011;45930;53.514;55.904;2022-08-11T02:04:08;53.00;;;40.78;;
60054;SDS011;45930;53.514;55.904;2022-08-11T02:11:04;48.70;;;40.92;;
60054;SDS011;45930;53.514;55.904;2022-08-11T02:12:45;52.67;;;40.42;;
60054;SDS011;45930;53.514;55.904;2022-08-11T02:14:36;47.75;;;38.90;;
60054;SDS011;45930;53.514;55.904;2022-08-11T02:19:21;48.55;;;39.20;;
60054;SDS011;45930;53.514;55.904;2022-08-11T02:20:54;44.80;;;37.33;;
60054;SDS011;45930;53.514;55.904;2022-08-11T02:22:29;47.47;;;38.58;;
60054;SDS011;45930;53.514;55.904;2022-08-11T02:23:57;51.08;;;40.13;;
60054;SDS011;45930;53.514;55.904;2022-08-11T02:25:05;47.00;;;38.03;;
60054;SDS011;45930;53.514;55.904;2022-08-11T02:27:12;48.95;;;39.83;;
60054;SDS011;45930;53.514;55.904;2022-08-11T02:31:22;47.50;;;40.03;;
60054;SDS011;45930;53.514;55.904;2022-08-11T02:35:50;50.10;;;38.92;;
60054;SDS011;45930;53.514;55.904;2022-08-11T02:39:46;49.47;;;37.85;;
60054;SDS011;45930;53.514;55.904;2022-08-11T02:48:36;46.42;;;37.83;;
60054;SDS011;45930;53.514;55.904;2022-08-11T02:52:54;49.75;;;37.28;;
60054;SDS011;45930;53.514;55.904;2022-08-11T02:55:26;50.00;;;37.72;;
60054;SDS011;45930;53.514;55.904;2022-08-11T02:59:13;42.72;;;38.10;;
60054;SDS011;45930;53.514;55.904;2022-08-11T03:00:35;47.42;;;37.25;;
60054;SDS011;45930;53.514;55.904;2022-08-11T03:01:57;45.50;;;36.00;;
60054;SDS011;45930;53.514;55.904;2022-08-11T03:04:24;47.53;;;38.50;;
60054;SDS011;45930;53.514;55.904;2022-08-11T03:05:42;43.08;;;37.60;;
60054;SDS011;45930;53.514;55.904;2022-08-11T03:07:04;45.13;;;39.53;;
60054;SDS011;45930;53.514;55.904;2022-08-11T03:11:04;40.53;;;36.10;;
60054;SDS011;45930;53.514;55.904;2022-08-11T03:12:32;44.72;;;37.58;;
60054;SDS011;45930;53.514;55.904;2022-08-11T03:15:47;42.75;;;36.80;;
60054;SDS011;45930;53.514;55.904;2022-08-11T03:17:32;44.05;;;37.78;;
60054;SDS011;45930;53.514;55.904;2022-08-11T03:18:53;41.80;;;37.28;;
60054;SDS011;45930;53.514;55.904;2022-08-11T03:20:22;44.17;;;38.05;;
60054;SDS011;45930;53.514;55.904;2022-08-11T03:23:27;41.40;;;35.63;;
60054;SDS011;45930;53.514;55.904;2022-08-11T03:27:07;43.53;;;37.17;;
60054;SDS011;45930;53.514;55.904;2022-08-11T03:29:36;41.88;;;36.85;;
60054;SDS011;45930;53.514;55.904;2022-08-11T03:30:52;42.42;;;37.47;;
60054;SDS011;45930;53.514;55.904;2022-08-11T03:32:03;43.22;;;36.92;;
60054;SDS011;45930;53.514;55.904;2022-08-11T03:33:20;43.13;;;36.83;;
60054;SDS011;45930;53.514;55.904;2022-08-11T03:34:43;49.58;;;37.50;;
60054;SDS011;45930;53.514;55.904;2022-08-11T03:38:42;45.45;;;37.53;;
60054;SDS011;45930;53.514;55.904;2022-08-11T03:40:51;45.80;;;39.78;;
60054;SDS011;45930;53.514;55.904;2022-08-11T03:42:17;45.25;;;39.45;;
60054;SDS011;45930;53.514;55.904;2022-08-11T03:49:22;44.50;;;38.05;;
60054;SDS011;45930;53.514;55.904;2022-08-11T03:51:54;46.38;;;39.85;;
60054;SDS011;45930;53.514;55.904;2022-08-11T04:00:49;47.00;;;40.67;;
60054;SDS011;45930;53.514;55.904;2022-08-11T04:15:59;287.60;;;64.05;;
60054;SDS011;45930;53.514;55.904;2022-08-11T04:17:26;79.53;;;47.38;;
60054;SDS011;45930;53.514;55.904;2022-08-11T04:18:53;58.17;;;51.80;;
60054;SDS011;45930;53.514;55.904;2022-08-11T04:29:12;61.47;;;53.38;;
60054;SDS011;45930;53.514;55.904;2022-08-11T04:34:24;60.60;;;54.05;;
60054;SDS011;45930;53.514;55.904;2022-08-11T04:36:58;67.40;;;53.40;;
60054;SDS011;45930;53.514;55.904;2022-08-11T04:39:59;64.15;;;53.63;;
60054;SDS011;45930;53.514;55.904;2022-08-11T04:50:24;64.88;;;54.80;;
60054;SDS011;45930;53.514;55.904;2022-08-11T04:56:23;62.38;;;54.50;;
60054;SDS011;45930;53.514;55.904;2022-08-11T04:57:50;68.88;;;56.85;;
60054;SDS011;45930;53.514;55.904;2022-08-11T04:59:39;65.93;;;53.92;;
60054;SDS011;45930;53.514;55.904;2022-08-11T05:01:25;63.67;;;56.30;;
60054;SDS011;45930;53.514;55.904;2022-08-11T05:11:38;59.67;;;52.65;;
60054;SDS011;45930;53.514;55.904;2022-08-11T05:12:54;60.60;;;53.95;;
60054;SDS011;45930;53.514;55.904;2022-08-11T05:15:56;60.45;;;53.72;;
60054;SDS011;45930;53.514;55.904;2022-08-11T05:17:23;61.92;;;52.70;;
60054;SDS011;45930;53.514;55.904;2022-08-11T05:18:52;60.10;;;53.38;;
60054;SDS011;45930;53.514;55.904;2022-08-11T05:20:12;57.63;;;51.40;;
60054;SDS011;45930;53.514;55.904;2022-08-11T05:21:33;59.22;;;52.90;;
60054;SDS011;45930;53.514;55.904;2022-08-11T05:22:53;54.40;;;48.00;;
60054;SDS011;45930;53.514;55.904;2022-08-11T05:26:03;57.78;;;48.70;;
60054;SDS011;45930;53.514;55.904;2022-08-11T05:27:40;54.28;;;47.92;;
60054;SDS011;45930;53.514;55.904;2022-08-11T05:31:11;56.10;;;49.75;;
60054;SDS011;45930;53.514;55.904;2022-08-11T05:32:37;53.20;;;47.38;;
60054;SDS011;45930;53.514;55.904;2022-08-11T05:35:40;52.55;;;46.53;;
60054;SDS011;45930;53.514;55.904;2022-08-11T05:37:00;54.38;;;46.60;;
60054;SDS011;45930;53.514;55.904;2022-08-11T05:38:08;54.15;;;48.40;;
60054;SDS011;45930;53.514;55.904;2022-08-11T05:39:38;55.40;;;49.17;;
60054;SDS011;45930;53.514;55.904;2022-08-11T05:41:04;59.10;;;50.42;;
60054;SDS011;45930;53.514;55.904;2022-08-11T05:42:24;54.40;;;48.53;;
60054;SDS011;45930;53.514;55.904;2022-08-11T05:43:44;53.17;;;47.53;;
60054;SDS011;45930;53.514;55.904;2022-08-11T05:45:10;55.33;;;47.03;;
60054;SDS011;45930;53.514;55.904;2022-08-11T05:46:38;54.97;;;48.05;;
60054;SDS011;45930;53.514;55.904;2022-08-11T05:48:01;57.55;;;49.13;;
60054;SDS011;45930;53.514;55.904;2022-08-11T05:49:21;54.13;;;48.53;;
60054;SDS011;45930;53.514;55.904;2022-08-11T05:50:49;56.08;;;49.38;;
60054;SDS011;45930;53.514;55.904;2022-08-11T05:52:36;57.17;;;48.75;;
60054;SDS011;45930;53.514;55.904;2022-08-11T05:53:58;52.92;;;47.08;;
60054;SDS011;45930;53.514;55.904;2022-08-11T05:55:18;53.53;;;46.88;;
60054;SDS011;45930;53.514;55.904;2022-08-11T05:56:42;53.20;;;47.58;;
60054;SDS011;45930;53.514;55.904;2022-08-11T05:57:53;54.10;;;45.90;;
60054;SDS011;45930;53.514;55.904;2022-08-11T05:58:56;55.40;;;47.72;;
60054;SDS011;45930;53.514;55.904;2022-08-11T05:59:58;52.10;;;46.45;;
60054;SDS011;45930;53.514;55.904;2022-08-11T06:01:00;53.17;;;47.08;;
60054;SDS011;45930;53.514;55.904;2022-08-11T06:02:02;54.17;;;47.50;;
60054;SDS011;45930;53.514;55.904;2022-08-11T06:03:05;52.03;;;46.40;;
60054;SDS011;45930;53.514;55.904;2022-08-11T06:04:14;52.03;;;45.50;;
60054;SDS011;45930;53.514;55.904;2022-08-11T06:05:38;52.13;;;46.00;;
60054;SDS011;45930;53.514;55.904;2022-08-11T06:06:56;52.72;;;46.40;;
60054;SDS011;45930;53.514;55.904;2022-08-11T06:07:59;49.85;;;44.38;;
60054;SDS011;45930;53.514;55.904;2022-08-11T06:09:01;53.75;;;46.50;;
60054;SDS011;45930;53.514;55.904;2022-08-11T06:10:02;54.85;;;48.38;;
60054;SDS011;45930;53.514;55.904;2022-08-11T06:11:04;53.35;;;47.42;;
60054;SDS011;45930;53.514;55.904;2022-08-11T06:12:07;53.50;;;47.75;;
60054;SDS011;45930;53.514;55.904;2022-08-11T06:13:16;55.70;;;47.88;;
60054;SDS011;45930;53.514;55.904;2022-08-11T06:14:18;53.42;;;47.20;;
60054;SDS011;45930;53.514;55.904;2022-08-11T06:15:21;52.97;;;47.35;;
60054;SDS011;45930;53.514;55.904;2022-08-11T06:16:24;52.35;;;46.75;;
60054;SDS011;45930;53.514;55.904;2022-08-11T06:17:28;54.15;;;46.40;;
60054;SDS011;45930;53.514;55.904;2022-08-11T06:18:30;53.78;;;48.08;;
60054;SDS011;45930;53.514;55.904;2022-08-11T06:19:34;52.15;;;46.47;;
60054;SDS011;45930;53.514;55.904;2022-08-11T06:20:46;52.38;;;46.95;;
60054;SDS011;45930;53.514;55.904;2022-08-11T06:21:49;50.80;;;45.45;;
60054;SDS011;45930;53.514;55.904;2022-08-11T06:23:00;50.58;;;45.05;;
60054;SDS011;45930;53.514;55.904;2022-08-11T06:24:03;51.15;;;45.72;;
60054;SDS011;45930;53.514;55.904;2022-08-11T06:25:11;49.70;;;44.35;;
60054;SDS011;45930;53.514;55.904;2022-08-11T06:26:13;51.38;;;45.85;;
60054;SDS011;45930;53.514;55.904;2022-08-11T06:27:18;50.75;;;45.35;;
60054;SDS011;45930;53.514;55.904;2022-08-11T06:28:28;48.00;;;42.33;;
60054;SDS011;45930;53.514;55.904;2022-08-11T06:29:35;49.15;;;43.40;;
60054;SDS011;45930;53.514;55.904;2022-08-11T06:30:41;44.45;;;39.78;;
60054;SDS011;45930;53.514;55.904;2022-08-11T06:31:52;44.25;;;39.47;;
60054;SDS011;45930;53.514;55.904;2022-08-11T06:32:56;43.92;;;38.97;;
60054;SDS011;45930;53.514;55.904;2022-08-11T06:34:24;46.85;;;41.97;;
60054;SDS011;45930;53.514;55.904;2022-08-11T06:38:09;44.00;;;39.10;;
60054;SDS011;45930;53.514;55.904;2022-08-11T06:39:23;47.45;;;39.80;;
60054;SDS011;45930;53.514;55.904;2022-08-11T06:40:37;44.15;;;39.58;;
60054;SDS011;45930;53.514;55.904;2022-08-11T06:42:07;43.05;;;38.65;;
60054;SDS011;45930;53.514;55.904;2022-08-11T06:43:22;78.85;;;43.10;;
60054;SDS011;45930;53.514;55.904;2022-08-11T06:44:29;43.90;;;39.50;;
60054;SDS011;45930;53.514;55.904;2022-08-11T06:45:50;48.13;;;41.65;;
60054;SDS011;45930;53.514;55.904;2022-08-11T06:46:51;44.72;;;39.78;;
60054;SDS011;45930;53.514;55.904;2022-08-11T06:47:55;46.20;;;41.53;;
60054;SDS011;45930;53.514;55.904;2022-08-11T06:53:34;47.80;;;42.65;;
60054;SDS011;45930;53.514;55.904;2022-08-11T06:54:42;46.03;;;41.45;;
60054;SDS011;45930;53.514;55.904;2022-08-11T06:56:03;46.95;;;41.83;;
60054;SDS011;45930;53.514;55.904;2022-08-11T06:57:44;46.50;;;40.58;;
60054;SDS011;45930;53.514;55.904;2022-08-11T06:59:05;45.42;;;39.90;;
60054;SDS011;45930;53.514;55.904;2022-08-11T07:00:46;43.83;;;39.28;;
60054;SDS011;45930;53.514;55.904;2022-08-11T07:03:09;45.30;;;40.70;;
60054;SDS011;45930;53.514;55.904;2022-08-11T07:04:13;45.78;;;40.45;;
60054;SDS011;45930;53.514;55.904;2022-08-11T07:05:50;44.70;;;39.75;;
60054;SDS011;45930;53.514;55.904;2022-08-11T07:11:53;40.38;;;36.05;;
60054;SDS011;45930;53.514;55.904;2022-08-11T07:13:32;39.33;;;35.38;;
60054;SDS011;45930;53.514;55.904;2022-08-11T07:14:56;38.67;;;29.80;;
60054;SDS011;45930;53.514;55.904;2022-08-11T07:16:17;33.30;;;30.02;;
60054;SDS011;45930;53.514;55.904;2022-08-11T07:17:25;32.95;;;29.70;;
60054;SDS011;45930;53.514;55.904;2022-08-11T07:18:29;31.15;;;28.15;;
60054;SDS011;45930;53.514;55.904;2022-08-11T07:19:56;32.50;;;29.30;;
60054;SDS011;45930;53.514;55.904;2022-08-11T07:22:39;34.40;;;30.95;;
60054;SDS011;45930;53.514;55.904;2022-08-11T07:24:01;34.55;;;30.60;;
60054;SDS011;45930;53.514;55.904;2022-08-11T07:25:25;34.20;;;30.65;;
60054;SDS011;45930;53.514;55.904;2022-08-11T07:26:49;36.83;;;33.03;;
60054;SDS011;45930;53.514;55.904;2022-08-11T07:28:14;36.40;;;32.55;;
60054;SDS011;45930;53.514;55.904;2022-08-11T07:29:39;38.90;;;34.85;;
60054;SDS011;45930;53.514;55.904;2022-08-11T07:30:45;40.10;;;34.03;;
60054;SDS011;45930;53.514;55.904;2022-08-11T07:31:49;41.72;;;34.72;;
60054;SDS011;45930;53.514;55.904;2022-08-11T07:32:54;39.17;;;35.28;;
60054;SDS011;45930;53.514;55.904;2022-08-11T07:35:12;40.70;;;36.70;;
60054;SDS011;45930;53.514;55.904;2022-08-11T07:36:17;40.70;;;36.30;;
60054;SDS011;45930;53.514;55.904;2022-08-11T07:37:20;38.72;;;34.70;;
60054;SDS011;45930;53.514;55.904;2022-08-11T07:38:26;38.80;;;35.05;;
60054;SDS011;45930;53.514;55.904;2022-08-11T07:39:47;38.65;;;34.60;;
60054;SDS011;45930;53.514;55.904;2022-08-11T07:40:49;38.47;;;34.60;;
60054;SDS011;45930;53.514;55.904;2022-08-11T07:41:51;39.05;;;35.17;;
60054;SDS011;45930;53.514;55.904;2022-08-11T07:42:56;41.17;;;36.67;;
60054;SDS011;45930;53.514;55.904;2022-08-11T07:44:00;40.25;;;35.30;;
60054;SDS011;45930;53.514;55.904;2022-08-11T07:45:08;40.30;;;35.85;;
60054;SDS011;45930;53.514;55.904;2022-08-11T07:46:28;38.17;;;34.13;;
60054;SDS011;45930;53.514;55.904;2022-08-11T07:47:47;41.22;;;37.08;;
60054;SDS011;45930;53.514;55.904;2022-08-11T07:49:08;38.88;;;35.10;;
60054;SDS011;45930;53.514;55.904;2022-08-11T07:50:29;39.47;;;35.45;;
60054;SDS011;45930;53.514;55.904;2022-08-11T07:51:48;40.25;;;36.15;;
60054;SDS011;45930;53.514;55.904;2022-08-11T07:53:08;39.03;;;35.22;;
60054;SDS011;45930;53.514;55.904;2022-08-11T07:54:12;38.97;;;35.05;;
60054;SDS011;45930;53.514;55.904;2022-08-11T07:55:15;39.13;;;35.35;;
60054;SDS011;45930;53.514;55.904;2022-08-11T07:56:17;39.53;;;35.50;;
60054;SDS011;45930;53.514;55.904;2022-08-11T07:57:19;41.75;;;36.92;;
60054;SDS011;45930;53.514;55.904;2022-08-11T07:58:38;40.72;;;36.90;;
60054;SDS011;45930;53.514;55.904;2022-08-11T07:59:57;42.55;;;38.33;;
60054;SDS011;45930;53.514;55.904;2022-08-11T08:01:21;40.80;;;36.70;;
60054;SDS011;45930;53.514;55.904;2022-08-11T08:02:42;41.00;;;36.20;;
60054;SDS011;45930;53.514;55.904;2022-08-11T08:04:03;40.85;;;36.67;;
60054;SDS011;45930;53.514;55.904;2022-08-11T08:05:24;39.38;;;35.53;;
60054;SDS011;45930;53.514;55.904;2022-08-11T08:06:43;38.38;;;34.47;;
60054;SDS011;45930;53.514;55.904;2022-08-11T08:08:03;37.90;;;34.15;;
60054;SDS011;45930;53.514;55.904;2022-08-11T08:09:25;93.07;;;40.95;;
60054;SDS011;45930;53.514;55.904;2022-08-11T08:10:45;40.30;;;36.13;;
60054;SDS011;45930;53.514;55.904;2022-08-11T08:12:04;39.22;;;35.22;;
60054;SDS011;45930;53.514;55.904;2022-08-11T08:13:26;39.75;;;35.63;;
60054;SDS011;45930;53.514;55.904;2022-08-11T08:14:45;45.20;;;36.00;;
60054;SDS011;45930;53.514;55.904;2022-08-11T08:16:04;40.90;;;35.63;;
60054;SDS011;45930;53.514;55.904;2022-08-11T08:17:24;42.17;;;35.60;;
60054;SDS011;45930;53.514;55.904;2022-08-11T08:18:44;38.05;;;34.17;;
60054;SDS011;45930;53.514;55.904;2022-08-11T08:19:46;39.78;;;35.45;;
60054;SDS011;45930;53.514;55.904;2022-08-11T08:20:48;41.28;;;36.97;;
60054;SDS011;45930;53.514;55.904;2022-08-11T08:21:50;41.47;;;37.22;;
60054;SDS011;45930;53.514;55.904;2022-08-11T08:22:52;40.53;;;36.42;;
60054;SDS011;45930;53.514;55.904;2022-08-11T08:23:57;41.00;;;36.60;;
60054;SDS011;45930;53.514;55.904;2022-08-11T08:24:59;39.67;;;35.42;;
60054;SDS011;45930;53.514;55.904;2022-08-11T08:26:01;39.55;;;35.55;;
60054;SDS011;45930;53.514;55.904;2022-08-11T08:27:04;39.55;;;35.42;;
60054;SDS011;45930;53.514;55.904;2022-08-11T08:28:06;41.95;;;37.75;;
60054;SDS011;45930;53.514;55.904;2022-08-11T08:29:10;41.00;;;36.63;;
60054;SDS011;45930;53.514;55.904;2022-08-11T08:30:29;40.63;;;36.53;;
60054;SDS011;45930;53.514;55.904;2022-08-11T08:31:49;41.63;;;37.38;;
60054;SDS011;45930;53.514;55.904;2022-08-11T08:32:51;40.60;;;36.30;;
60054;SDS011;45930;53.514;55.904;2022-08-11T08:33:52;41.65;;;37.15;;
60054;SDS011;45930;53.514;55.904;2022-08-11T08:34:54;40.55;;;36.47;;
60054;SDS011;45930;53.514;55.904;2022-08-11T08:35:57;40.80;;;36.55;;
60054;SDS011;45930;53.514;55.904;2022-08-11T08:37:11;39.42;;;35.30;;
60054;SDS011;45930;53.514;55.904;2022-08-11T08:38:13;38.63;;;34.55;;
60054;SDS011;45930;53.514;55.904;2022-08-11T08:39:14;39.53;;;35.53;;
60054;SDS011;45930;53.514;55.904;2022-08-11T08:40:20;39.78;;;35.72;;
60054;SDS011;45930;53.514;55.904;2022-08-11T08:41:28;42.67;;;38.22;;
60054;SDS011;45930;53.514;55.904;2022-08-11T08:42:31;42.03;;;37.88;;
60054;SDS011;45930;53.514;55.904;2022-08-11T08:43:38;41.13;;;37.33;;
60054;SDS011;45930;53.514;55.904;2022-08-11T08:44:40;42.40;;;38.08;;
60054;SDS011;45930;53.514;55.904;2022-08-11T08:45:44;41.63;;;37.35;;
60054;SDS011;45930;53.514;55.904;2022-08-11T08:46:47;42.90;;;37.78;;
60054;SDS011;45930;53.514;55.904;2022-08-11T08:49:32;40.60;;;36.55;;
60054;SDS011;45930;53.514;55.904;2022-08-11T08:50:36;41.70;;;37.50;;
60054;SDS011;45930;53.514;55.904;2022-08-11T08:52:02;41.45;;;37.40;;
60054;SDS011;45930;53.514;55.904;2022-08-11T08:53:04;52.92;;;39.60;;
60054;SDS011;45930;53.514;55.904;2022-08-11T08:54:08;42.60;;;38.30;;
60054;SDS011;45930;53.514;55.904;2022-08-11T08:55:16;42.17;;;37.80;;
60054;SDS011;45930;53.514;55.904;2022-08-11T08:56:18;40.97;;;36.78;;
60054;SDS011;45930;53.514;55.904;2022-08-11T08:57:25;42.42;;;31.88;;
60054;SDS011;45930;53.514;55.904;2022-08-11T08:58:27;32.45;;;29.25;;
60054;SDS011;45930;53.514;55.904;2022-08-11T08:59:30;33.17;;;30.00;;
60054;SDS011;45930;53.514;55.904;2022-08-11T09:00:44;32.90;;;29.50;;
60054;SDS011;45930;53.514;55.904;2022-08-11T09:01:50;32.58;;;29.40;;
60054;SDS011;45930;53.514;55.904;2022-08-11T09:02:55;31.45;;;28.20;;
60054;SDS011;45930;53.514;55.904;2022-08-11T09:03:57;30.55;;;27.67;;
60054;SDS011;45930;53.514;55.904;2022-08-11T09:04:59;65.70;;;31.63;;
60054;SDS011;45930;53.514;55.904;2022-08-11T09:06:01;33.55;;;29.88;;
60054;SDS011;45930;53.514;55.904;2022-08-11T09:07:06;32.50;;;29.05;;
60054;SDS011;45930;53.514;55.904;2022-08-11T09:08:11;31.48;;;28.25;;
60054;SDS011;45930;53.514;55.904;2022-08-11T09:09:13;31.10;;;27.77;;
60054;SDS011;45930;53.514;55.904;2022-08-11T09:10:14;31.33;;;28.20;;
60054;SDS011;45930;53.514;55.904;2022-08-11T09:11:19;29.48;;;26.67;;
60054;SDS011;45930;53.514;55.904;2022-08-11T09:12:41;30.75;;;27.95;;
60054;SDS011;45930;53.514;55.904;2022-08-11T09:13:43;29.90;;;27.10;;
60054;SDS011;45930;53.514;55.904;2022-08-11T09:14:48;28.20;;;25.70;;
60054;SDS011;45930;53.514;55.904;2022-08-11T09:16:07;27.95;;;25.38;;
60054;SDS011;45930;53.514;55.904;2022-08-11T09:17:09;29.10;;;26.35;;
60054;SDS011;45930;53.514;55.904;2022-08-11T09:18:12;28.38;;;25.63;;
60054;SDS011;45930;53.514;55.904;2022-08-11T09:19:19;30.08;;;25.77;;
60054;SDS011;45930;53.514;55.904;2022-08-11T09:20:21;27.08;;;24.67;;
60054;SDS011;45930;53.514;55.904;2022-08-11T09:21:24;27.73;;;25.15;;
60054;SDS011;45930;53.514;55.904;2022-08-11T09:22:26;28.17;;;25.45;;
60054;SDS011;45930;53.514;55.904;2022-08-11T09:23:46;28.08;;;25.38;;
60054;SDS011;45930;53.514;55.904;2022-08-11T09:25:08;25.95;;;23.55;;
60054;SDS011;45930;53.514;55.904;2022-08-11T09:26:27;24.25;;;21.80;;
60054;SDS011;45930;53.514;55.904;2022-08-11T09:27:47;25.92;;;23.42;;
60054;SDS011;45930;53.514;55.904;2022-08-11T09:28:48;25.33;;;23.10;;
60054;SDS011;45930;53.514;55.904;2022-08-11T09:29:49;26.58;;;24.20;;
60054;SDS011;45930;53.514;55.904;2022-08-11T09:30:51;25.00;;;22.73;;
60054;SDS011;45930;53.514;55.904;2022-08-11T09:31:52;27.83;;;24.98;;
60054;SDS011;45930;53.514;55.904;2022-08-11T09:33:00;27.80;;;25.00;;
60054;SDS011;45930;53.514;55.904;2022-08-11T09:34:04;28.45;;;25.58;;
60054;SDS011;45930;53.514;55.904;2022-08-11T09:35:05;31.20;;;28.30;;
60054;SDS011;45930;53.514;55.904;2022-08-11T09:36:07;31.20;;;28.35;;
60054;SDS011;45930;53.514;55.904;2022-08-11T09:37:27;31.98;;;28.67;;
60054;SDS011;45930;53.514;55.904;2022-08-11T09:38:49;32.03;;;28.63;;
60054;SDS011;45930;53.514;55.904;2022-08-11T09:40:09;30.98;;;28.05;;
60054;SDS011;45930;53.514;55.904;2022-08-11T09:41:31;33.13;;;29.83;;
60054;SDS011;45930;53.514;55.904;2022-08-11T09:42:33;33.45;;;30.05;;
60054;SDS011;45930;53.514;55.904;2022-08-11T09:43:53;32.40;;;29.38;;
60054;SDS011;45930;53.514;55.904;2022-08-11T09:45:14;30.98;;;28.17;;
60054;SDS011;45930;53.514;55.904;2022-08-11T09:46:16;31.30;;;28.08;;
60054;SDS011;45930;53.514;55.904;2022-08-11T09:47:27;27.95;;;25.63;;
60054;SDS011;45930;53.514;55.904;2022-08-11T09:48:30;29.65;;;26.75;;
60054;SDS011;45930;53.514;55.904;2022-08-11T09:49:34;29.75;;;26.92;;
60054;SDS011;45930;53.514;55.904;2022-08-11T09:50:37;28.88;;;26.27;;
60054;SDS011;45930;53.514;55.904;2022-08-11T09:51:39;27.15;;;23.75;;
60054;SDS011;45930;53.514;55.904;2022-08-11T09:52:41;28.08;;;25.55;;
60054;SDS011;45930;53.514;55.904;2022-08-11T09:53:44;27.38;;;24.88;;
60054;SDS011;45930;53.514;55.904;2022-08-11T09:54:46;27.15;;;24.60;;
60054;SDS011;45930;53.514;55.904;2022-08-11T09:55:49;28.17;;;25.65;;
60054;SDS011;45930;53.514;55.904;2022-08-11T09:56:52;27.00;;;24.38;;
60054;SDS011;45930;53.514;55.904;2022-08-11T09:58:12;27.77;;;25.27;;
60054;SDS011;45930;53.514;55.904;2022-08-11T09:59:18;28.42;;;25.63;;
60054;SDS011;45930;53.514;55.904;2022-08-11T10:00:21;29.10;;;25.50;;
60054;SDS011;45930;53.514;55.904;2022-08-11T10:01:51;27.73;;;25.33;;
60054;SDS011;45930;53.514;55.904;2022-08-11T10:02:56;28.23;;;25.63;;
60054;SDS011;45930;53.514;55.904;2022-08-11T10:04:44;28.63;;;25.98;;
60054;SDS011;45930;53.514;55.904;2022-08-11T10:05:31;28.48;;;25.83;;
60054;SDS011;45930;53.514;55.904;2022-08-11T10:06:52;29.15;;;26.25;;
60054;SDS011;45930;53.514;55.904;2022-08-11T10:08:11;29.17;;;26.38;;
60054;SDS011;45930;53.514;55.904;2022-08-11T10:09:15;29.77;;;26.83;;
60054;SDS011;45930;53.514;55.904;2022-08-11T10:10:20;31.40;;;28.50;;
60054;SDS011;45930;53.514;55.904;2022-08-11T10:11:23;34.65;;;31.05;;
60054;SDS011;45930;53.514;55.904;2022-08-11T10:12:25;35.40;;;31.90;;
60054;SDS011;45930;53.514;55.904;2022-08-11T10:13:36;36.50;;;32.80;;
60054;SDS011;45930;53.514;55.904;2022-08-11T10:15:02;31.63;;;28.33;;
60054;SDS011;45930;53.514;55.904;2022-08-11T10:16:27;30.42;;;27.27;;
60054;SDS011;45930;53.514;55.904;2022-08-11T10:17:32;29.60;;;26.75;;
60054;SDS011;45930;53.514;55.904;2022-08-11T10:18:37;29.52;;;26.00;;
60054;SDS011;45930;53.514;55.904;2022-08-11T10:19:42;28.58;;;25.77;;
60054;SDS011;45930;53.514;55.904;2022-08-11T10:20:46;27.63;;;24.80;;
60054;SDS011;45930;53.514;55.904;2022-08-11T10:21:50;28.35;;;25.73;;